Time;durP1;ratioP1;P1;durP2;ratioP2;P2;SDS_P1;SDS_P2;PMS_P1;PMS_P2;Temp;Humidity;BMP_temperature;BMP_pressure;BME280_temperature;BME280_humidity;BME280_pressure;Samples;Min_cycle;Max_cycle;Signal;HPM_P1;HPM_P2
2021/05/02 00:02:03;;;;;;;1999.90;999.90;;;;;;;11.25;68.32;100615.75;15488109;28;20062;-55
2021/05/02 00:09:35;;;;;;;1999.90;999.90;;;;;;;11.35;68.61;100625.69;15470569;28;20058;-61
2021/05/02 00:17:07;;;;;;;1999.90;999.90;;;;;;;11.12;69.40;100600.09;15469846;28;20117;-61
2021/05/02 00:24:40;;;;;;;1999.90;999.90;;;;;;;11.24;69.12;100595.38;15487516;28;20042;-60
2021/05/02 00:32:12;;;;;;;1999.90;999.90;;;;;;;11.35;68.98;100583.78;15487736;28;20050;-62
2021/05/02 00:39:46;;;;;;;1999.90;999.90;;;;;;;11.31;69.35;100578.09;15469815;28;20050;-62
2021/05/02 00:47:19;;;;;;;1999.90;999.90;;;;;;;11.18;69.48;100581.97;15469387;28;20061;-60
2021/05/02 00:55:02;;;;;;;1999.90;999.90;;;;;;;11.35;69.58;100590.19;15491931;28;20518;-61
2021/05/02 01:02:35;;;;;;;1999.90;999.90;;;;;;;11.71;67.94;100586.78;15496395;28;20051;-62
2021/05/02 01:10:11;;;;;;;1999.90;999.90;;;;;;;11.72;67.83;100573.59;15498492;28;20053;-58
2021/05/02 01:17:43;;;;;;;1999.90;999.90;;;;;;;11.77;67.63;100574.19;15497867;28;20553;-56
2021/05/02 01:25:16;;;;;;;1999.90;999.90;;;;;;;11.59;68.53;100567.16;15496937;28;20066;-57
2021/05/02 01:32:48;;;;;;;1999.90;999.90;;;;;;;11.67;67.77;100580.25;15464441;28;20076;-56
2021/05/02 01:40:21;;;;;;;1999.90;999.90;;;;;;;11.67;67.82;100582.19;15479700;28;20326;-59
2021/05/02 01:48:03;;;;;;;1999.90;999.90;;;;;;;11.79;67.91;100566.34;15479639;28;20046;-58
2021/05/02 01:55:37;;;;;;;1999.90;999.90;;;;;;;11.91;66.93;100579.53;15479594;28;20395;-54
2021/05/02 02:03:10;;;;;;;1999.90;999.90;;;;;;;11.94;66.55;100567.66;15463063;28;20514;-56
2021/05/02 02:10:43;;;;;;;1999.90;999.90;;;;;;;11.21;69.65;100551.38;15478274;28;20061;-59
2021/05/02 02:18:17;;;;;;;1999.90;999.90;;;;;;;10.86;71.04;100550.84;15477613;28;20487;-60
2021/05/02 02:25:50;;;;;;;1999.90;999.90;;;;;;;11.35;69.51;100553.06;15494487;28;20120;-57
2021/05/02 02:33:23;;;;;;;1999.90;999.90;;;;;;;11.66;68.29;100545.03;15477563;28;20057;-59
2021/05/02 02:40:57;;;;;;;1999.90;999.90;;;;;;;11.66;67.95;100538.63;15494633;28;20372;-57
2021/05/02 02:48:34;;;;;;;1999.90;999.90;;;;;;;11.72;67.81;100540.06;15475763;28;20042;-60
2021/05/02 02:56:08;;;;;;;1999.90;999.90;;;;;;;11.72;67.58;100537.28;15475332;28;20045;-57
2021/05/02 03:03:46;;;;;;;1999.90;999.90;;;;;;;11.57;67.86;100541.53;15491992;28;20051;-59
2021/05/02 03:11:18;;;;;;;1999.90;999.90;;;;;;;11.63;67.59;100556.09;15492500;28;20432;-61
2021/05/02 03:18:54;;;;;;;1999.90;999.90;;;;;;;11.73;67.37;100550.09;15473650;28;20488;-62
2021/05/02 03:26:29;;;;;;;1999.90;999.90;;;;;;;11.64;67.79;100554.94;15452991;23;20062;-65
2021/05/02 03:34:04;;;;;;;1999.90;999.90;;;;;;;11.65;67.69;100556.56;15418964;28;20054;-66
2021/05/02 03:41:37;;;;;;;1999.90;999.90;;;;;;;11.56;67.25;100546.28;15436023;28;20043;-66
2021/05/02 03:49:09;;;;;;;1999.90;999.90;;;;;;;11.53;67.57;100557.34;15435304;28;20039;-64
2021/05/02 03:56:43;;;;;;;1999.90;999.90;;;;;;;11.22;69.31;100558.59;15400681;28;20047;-65
2021/05/02 04:04:18;;;;;;;1999.90;999.90;;;;;;;11.21;69.06;100561.75;15401087;28;20396;-65
2021/05/02 04:11:50;;;;;;;1999.90;999.90;;;;;;;11.11;69.20;100550.97;15478946;28;20051;-65
2021/05/02 04:19:22;;;;;;;1999.90;999.90;;;;;;;11.25;68.24;100565.47;15493745;28;20129;-65
2021/05/02 04:26:56;;;;;;;1999.90;999.90;;;;;;;10.88;70.25;100567.25;15475584;28;20495;-65
2021/05/02 04:34:29;;;;;;;1999.90;999.90;;;;;;;10.76;70.75;100569.97;15493263;28;20404;-65
2021/05/02 04:42:03;;;;;;;1999.90;999.90;;;;;;;10.95;70.24;100568.34;15476269;28;20514;-65
2021/05/02 04:49:34;;;;;;;1999.90;999.90;;;;;;;11.20;69.31;100558.13;15459770;28;20044;-65
2021/05/02 04:57:07;;;;;;;1999.90;999.90;;;;;;;11.26;68.98;100554.00;15476112;28;20038;-65
2021/05/02 05:04:38;;;;;;;1999.90;999.90;;;;;;;11.44;68.12;100556.59;15496634;28;20042;-64
2021/05/02 05:12:11;;;;;;;1999.90;999.90;;;;;;;11.52;68.03;100561.31;15476038;28;20133;-65
2021/05/02 05:19:43;;;;;;;1999.90;999.90;;;;;;;11.46;67.88;100557.06;15492344;28;20410;-64
2021/05/02 05:27:16;;;;;;;1999.90;999.90;;;;;;;11.74;67.21;100563.72;15474879;28;20051;-65
2021/05/02 05:34:48;;;;;;;1999.90;999.90;;;;;;;11.77;66.89;100551.81;15474332;28;20054;-64
2021/05/02 05:42:20;;;;;;;1999.90;999.90;;;;;;;11.71;66.96;100561.63;15481416;28;20050;-65
2021/05/02 05:49:52;;;;;;;1999.90;999.90;;;;;;;11.48;67.88;100563.97;15503008;28;20046;-65
2021/05/02 05:57:24;;;;;;;1999.90;999.90;;;;;;;11.49;68.13;100568.41;15484569;28;20046;-66
2021/05/02 06:04:56;;;;;;;1999.90;999.90;;;;;;;11.74;66.97;100579.66;15501720;28;20046;-65
2021/05/02 06:12:29;;;;;;;1999.90;999.90;;;;;;;11.76;67.28;100589.34;15484887;28;20054;-64
2021/05/02 06:20:00;;;;;;;1999.90;999.90;;;;;;;11.89;66.83;100609.81;15467116;28;20061;-65
2021/05/02 06:27:33;;;;;;;1999.90;999.90;;;;;;;11.79;67.58;100613.84;15482915;28;20081;-65
2021/05/02 06:35:06;;;;;;;1999.90;999.90;;;;;;;11.81;67.42;100622.72;15499953;28;20073;-65
2021/05/02 06:42:39;;;;;;;1999.90;999.90;;;;;;;11.77;67.79;100623.69;15501489;28;20050;-65
2021/05/02 06:50:11;;;;;;;1999.90;999.90;;;;;;;11.88;67.72;100629.72;15481142;28;20463;-64
2021/05/02 06:57:43;;;;;;;1999.90;999.90;;;;;;;12.22;65.83;100629.38;15499736;28;20648;-65
2021/05/02 07:05:15;;;;;;;1999.90;999.90;;;;;;;12.12;66.83;100643.78;15481754;28;20101;-65
2021/05/02 07:12:47;;;;;;;1999.90;999.90;;;;;;;12.51;65.62;100641.56;15499301;28;20042;-65
2021/05/02 07:20:21;;;;;;;1999.90;999.90;;;;;;;12.23;66.22;100652.56;15480823;28;20050;-65
2021/05/02 07:27:54;;;;;;;1999.90;999.90;;;;;;;12.37;65.75;100650.25;15497696;28;20050;-64
2021/05/02 07:35:25;;;;;;;1999.90;999.90;;;;;;;12.37;65.62;100653.88;15496954;28;20120;-65
2021/05/02 07:42:58;;;;;;;1999.90;999.90;;;;;;;12.38;66.71;100655.50;15496215;28;20097;-64
2021/05/02 07:50:29;;;;;;;1999.90;999.90;;;;;;;12.70;65.43;100661.38;15496160;28;20077;-65
2021/05/02 07:58:03;;;;;;;1999.90;999.90;;;;;;;12.74;65.54;100653.09;15495454;28;20053;-65
2021/05/02 08:05:35;;;;;;;1999.90;999.90;;;;;;;13.18;63.86;100657.75;15477588;28;20054;-66
2021/05/02 08:13:07;;;;;;;1999.90;999.90;;;;;;;12.99;64.23;100658.34;15494539;28;20195;-64
2021/05/02 08:20:40;;;;;;;1999.90;999.90;;;;;;;12.90;64.92;100665.22;15476753;28;20050;-65
2021/05/02 08:28:12;;;;;;;1999.90;999.90;;;;;;;13.75;62.19;100656.72;15480063;28;20057;-65
2021/05/02 08:35:48;;;;;;;1999.90;999.90;;;;;;;13.90;62.34;100669.16;15476913;28;20102;-66
2021/05/02 08:43:20;;;;;;;1999.90;999.90;;;;;;;13.47;63.21;100662.28;15493657;28;20076;-66
2021/05/02 08:50:54;;;;;;;1999.90;999.90;;;;;;;13.77;61.92;100664.78;15493664;28;20484;-65
2021/05/02 08:58:27;;;;;;;1999.90;999.90;;;;;;;13.36;63.35;100668.75;15492908;28;20133;-66
2021/05/02 09:05:58;;;;;;;1999.90;999.90;;;;;;;13.51;62.09;100670.81;15492863;28;20263;-64
2021/05/02 09:13:31;;;;;;;1999.90;999.90;;;;;;;13.40;63.07;100661.25;15493045;28;20042;-63
2021/05/02 09:21:05;;;;;;;1999.90;999.90;;;;;;;13.88;61.07;100667.91;15504730;28;20043;-65
2021/05/02 09:28:43;;;;;;;1999.90;999.90;;;;;;;13.85;61.31;100661.00;15487912;28;20109;-64
2021/05/02 09:36:16;;;;;;;1999.90;999.90;;;;;;;13.57;61.02;100656.19;15503497;28;20455;-66
2021/05/02 09:43:50;;;;;;;1999.90;999.90;;;;;;;14.68;59.54;100665.72;15502739;28;20117;-66
2021/05/02 09:51:23;;;;;;;1999.90;999.90;;;;;;;14.49;58.13;100674.06;15501931;28;20517;-66
2021/05/02 09:58:55;;;;;;;1999.90;999.90;;;;;;;14.62;58.93;100688.81;15500486;28;20093;-66
2021/05/02 10:06:32;;;;;;;1999.90;999.90;;;;;;;14.21;59.79;100668.44;15492677;28;20092;-65
2021/05/02 10:14:05;;;;;;;1999.90;999.90;;;;;;;13.96;60.25;100690.16;15445291;28;20050;-65
2021/05/02 10:21:37;;;;;;;1999.90;999.90;;;;;;;14.47;60.56;100684.00;15439274;28;20046;-65
2021/05/02 10:29:10;;;;;;;1999.90;999.90;;;;;;;14.55;59.66;100689.44;15421224;28;20055;-66
2021/05/02 10:36:42;;;;;;;1999.90;999.90;;;;;;;13.82;59.99;100682.16;15438392;28;20522;-65
2021/05/02 10:44:33;;;;;;;1999.90;999.90;;;;;;;13.79;61.35;100694.09;15438794;28;20058;-65
2021/05/02 10:52:30;;;;;;;1999.90;999.90;;;;;;;14.19;60.09;100696.06;15392118;28;20051;-65
2021/05/02 11:00:06;;;;;;;1999.90;999.90;;;;;;;13.74;61.26;100710.34;15366629;29;20505;-65
2021/05/02 11:07:40;;;;;;;1999.90;999.90;;;;;;;14.30;59.91;100716.00;15377801;28;20444;-65
2021/05/02 11:15:37;;;;;;;1999.90;999.90;;;;;;;14.75;59.45;100715.66;15418650;28;20062;-64
2021/05/02 11:23:09;;;;;;;1999.90;999.90;;;;;;;13.92;60.86;100724.91;15426173;28;20531;-62
2021/05/02 11:30:48;;;;;;;1999.90;999.90;;;;;;;13.73;61.79;100714.31;15379548;28;20062;-65
2021/05/02 11:38:22;;;;;;;1999.90;999.90;;;;;;;13.67;61.78;100721.38;15380430;28;20047;-61
2021/05/02 11:45:56;;;;;;;1999.90;999.90;;;;;;;13.82;61.21;100727.03;15388743;28;20563;-61
2021/05/02 11:53:32;;;;;;;1999.90;999.90;;;;;;;13.63;61.71;100732.44;15353731;28;20390;-64
2021/05/02 12:01:05;;;;;;;1999.90;999.90;;;;;;;14.11;61.23;100739.94;15358317;29;20043;-65
2021/05/02 12:08:37;;;;;;;1999.90;999.90;;;;;;;14.02;64.07;100735.63;15375328;29;20133;-65
2021/05/02 12:16:11;;;;;;;1999.90;999.90;;;;;;;14.31;64.79;100726.88;15357090;29;20610;-65
2021/05/02 12:23:43;;;;;;;1999.90;999.90;;;;;;;14.26;67.33;100729.09;15368341;28;20046;-66
2021/05/02 12:31:16;;;;;;;1999.90;999.90;;;;;;;14.26;67.20;100745.94;15416875;28;20055;-65
2021/05/02 12:39:03;;;;;;;1999.90;999.90;;;;;;;14.21;67.85;100744.22;15399782;28;20055;-65
2021/05/02 12:46:37;;;;;;;1999.90;999.90;;;;;;;14.01;67.24;100748.84;15433505;28;20424;-64
2021/05/02 12:54:11;;;;;;;1999.90;999.90;;;;;;;13.60;67.99;100755.59;15443814;28;20082;-65
2021/05/02 13:01:59;;;;;;;;;;;;;;;13.28;71.55;100751.78;15412212;28;20046;-66
2021/05/02 13:09:38;;;;;;;1999.90;999.90;;;;;;;13.58;69.67;100757.94;15444653;28;19922;-64
2021/05/02 13:17:13;;;;;;;1999.90;999.90;;;;;;;13.67;68.12;100755.00;15445733;28;20058;-65
2021/05/02 13:24:55;;;;;;;1999.90;999.90;;;;;;;13.47;63.75;100759.59;15444748;28;20051;-64
2021/05/02 13:32:28;;;;;;;1999.90;999.90;;;;;;;14.13;62.95;100767.63;15425899;28;20511;-63
2021/05/02 13:40:00;;;;;;;1999.90;999.90;;;;;;;14.76;60.96;100765.03;15409046;28;20483;-63
2021/05/02 13:47:33;;;;;;;1999.90;999.90;;;;;;;15.54;57.94;100774.66;15424517;28;20043;-63
2021/05/02 13:55:06;;;;;;;1999.90;999.90;;;;;;;14.66;57.29;100773.97;15442009;28;20049;-61
2021/05/02 14:02:39;;;;;;;1999.90;999.90;;;;;;;15.59;53.89;100785.59;15441736;28;20077;-60
2021/05/02 14:10:11;;;;;;;1999.90;999.90;;;;;;;14.67;54.58;100781.22;15438875;28;20047;-64
2021/05/02 14:17:45;;;;;;;1999.90;999.90;;;;;;;14.85;54.82;100788.16;15401261;28;20143;-63
2021/05/02 14:25:17;;;;;;;1999.90;999.90;;;;;;;14.54;54.10;100793.69;15437719;28;20550;-61
2021/05/02 14:32:49;;;;;;;1999.90;999.90;;;;;;;14.70;53.44;100800.19;15437927;28;20519;-63
2021/05/02 14:40:21;;;;;;;1999.90;999.90;;;;;;;14.43;53.68;100805.41;15420346;28;20089;-63
2021/05/02 14:47:54;;;;;;;1999.90;999.90;;;;;;;14.02;54.35;100806.59;15437180;28;20047;-65
2021/05/02 14:55:25;;;;;;;1999.90;999.90;;;;;;;14.01;54.07;100812.56;15420727;28;20460;-62
2021/05/02 15:02:58;;;;;;;1999.90;999.90;;;;;;;14.10;56.23;100805.63;15415744;28;20459;-63
2021/05/02 15:10:29;;;;;;;1999.90;999.90;;;;;;;14.14;53.96;100823.38;15438586;28;20081;-64
2021/05/02 15:18:02;;;;;;;1999.90;999.90;;;;;;;13.82;55.06;100828.00;15403378;28;20496;-64
2021/05/02 15:25:34;;;;;;;1999.90;999.90;;;;;;;13.96;55.51;100838.84;15435871;28;20047;-62
2021/05/02 15:33:06;;;;;;;1999.90;999.90;;;;;;;13.53;55.49;100829.06;15435028;28;20126;-63
2021/05/02 15:40:38;;;;;;;1999.90;999.90;;;;;;;13.51;56.88;100836.19;15416770;28;20469;-63
2021/05/02 15:48:10;;;;;;;1999.90;999.90;;;;;;;13.76;57.38;100835.03;15433580;28;20089;-64
2021/05/02 15:55:42;;;;;;;1999.90;999.90;;;;;;;13.93;55.19;100842.38;15417686;28;20055;-64
2021/05/02 16:03:15;;;;;;;1999.90;999.90;;;;;;;13.14;56.69;100841.75;15417308;28;20054;-63
2021/05/02 16:10:46;;;;;;;1999.90;999.90;;;;;;;13.67;56.40;100841.94;15460530;28;20080;-64
2021/05/02 16:18:18;;;;;;;1999.90;999.90;;;;;;;13.65;57.03;100838.63;15477507;28;20097;-64
2021/05/02 16:25:50;;;;;;;1999.90;999.90;;;;;;;13.71;58.30;100846.47;15476724;28;20053;-65
2021/05/02 16:33:22;;;;;;;1999.90;999.90;;;;;;;12.61;60.88;100857.47;15476563;28;20438;-63
2021/05/02 16:40:55;;;;;;;1999.90;999.90;;;;;;;12.09;64.45;100871.88;15460239;28;20126;-64
2021/05/02 16:48:28;;;;;;;1999.90;999.90;;;;;;;11.91;67.01;100869.50;15412170;28;20190;-64
2021/05/02 16:55:59;;;;;;;1999.90;999.90;;;;;;;11.91;66.91;100869.50;15413566;28;20082;-64
2021/05/02 17:03:32;;;;;;;1999.90;999.90;;;;;;;11.60;69.26;100881.81;15438089;28;20050;-63
2021/05/02 17:11:03;;;;;;;1999.90;999.90;;;;;;;11.08;69.53;100889.56;15431501;28;20047;-65
2021/05/02 17:18:36;;;;;;;1999.90;999.90;;;;;;;11.16;69.03;100881.16;15427019;28;20078;-64
2021/05/02 17:26:07;;;;;;;1999.90;999.90;;;;;;;11.03;71.19;100900.88;15414264;28;20057;-61
2021/05/02 17:33:40;;;;;;;1999.90;999.90;;;;;;;10.89;71.16;100887.13;15410012;28;20408;-63
2021/05/02 17:41:12;;;;;;;1999.90;999.90;;;;;;;11.27;70.69;100890.00;15434115;28;20046;-63
2021/05/02 17:48:47;;;;;;;1999.90;999.90;;;;;;;11.42;70.42;100880.25;15424332;28;20081;-64
2021/05/02 17:56:21;;;;;;;1999.90;999.90;;;;;;;11.37;70.23;100889.63;15440583;28;20344;-63
2021/05/02 18:03:54;;;;;;;1999.90;999.90;;;;;;;11.50;70.49;100910.13;15441140;28;20046;-63
2021/05/02 18:11:26;;;;;;;1999.90;999.90;;;;;;;10.52;73.07;100905.34;15439744;28;20038;-64
2021/05/02 18:18:58;;;;;;;1999.90;999.90;;;;;;;10.67;73.06;100930.00;15422438;28;20035;-64
2021/05/02 18:26:30;;;;;;;1999.90;999.90;;;;;;;10.52;72.80;100930.47;15440922;28;20049;-64
2021/05/02 18:34:03;;;;;;;1999.90;999.90;;;;;;;10.43;72.31;100919.34;15440353;28;20051;-64
2021/05/02 18:41:36;;;;;;;1999.90;999.90;;;;;;;10.65;71.51;100932.31;15440454;28;20607;-64
2021/05/02 18:49:08;;;;;;;1999.90;999.90;;;;;;;10.80;71.46;100945.75;15420108;28;20106;-66
2021/05/02 18:56:40;;;;;;;1999.90;999.90;;;;;;;10.89;71.85;100952.16;15421582;28;20054;-65
2021/05/02 19:04:12;;;;;;;1999.90;999.90;;;;;;;10.82;71.98;100959.38;15438639;28;20043;-65
2021/05/02 19:11:44;;;;;;;1999.90;999.90;;;;;;;10.11;73.01;100968.78;15438913;28;20559;-65
2021/05/02 19:19:17;;;;;;;1999.90;999.90;;;;;;;10.02;72.06;100967.94;15437042;28;20570;-65
2021/05/02 19:26:50;;;;;;;1999.90;999.90;;;;;;;10.16;71.51;100975.34;15419513;28;20046;-65
2021/05/02 19:34:22;;;;;;;1999.90;999.90;;;;;;;9.99;70.97;100970.53;15419535;28;20436;-64
2021/05/02 19:41:54;;;;;;;1999.90;999.90;;;;;;;9.89;71.34;100979.19;15419936;28;20047;-65
2021/05/02 19:49:27;;;;;;;1999.90;999.90;;;;;;;10.03;70.69;100980.72;15418214;28;20051;-66
2021/05/02 19:56:58;;;;;;;1999.90;999.90;;;;;;;10.09;69.60;100990.56;15417327;28;20054;-63
2021/05/02 20:04:31;;;;;;;1999.90;999.90;;;;;;;9.85;70.03;100992.97;15418046;28;20113;-65
2021/05/02 20:12:03;;;;;;;1999.90;999.90;;;;;;;9.85;69.59;100992.97;15417745;28;20046;-66
2021/05/02 20:19:39;;;;;;;1999.90;999.90;;;;;;;9.73;71.29;101004.72;15417666;28;20078;-64
2021/05/02 20:27:17;;;;;;;1999.90;999.90;;;;;;;9.82;70.46;101010.34;15434933;28;20137;-64
2021/05/02 20:34:58;;;;;;;1999.90;999.90;;;;;;;9.67;71.48;101013.50;15417719;28;20054;-64
2021/05/02 20:42:37;;;;;;;1999.90;999.90;;;;;;;9.57;71.00;101017.41;15401927;28;20057;-65
2021/05/02 20:50:15;;;;;;;1999.90;999.90;;;;;;;9.63;71.28;101018.91;15417236;28;20250;-65
2021/05/02 20:57:47;;;;;;;1999.90;999.90;;;;;;;9.55;71.03;101030.81;15415731;28;20039;-65
2021/05/02 21:05:20;;;;;;;1999.90;999.90;;;;;;;9.60;70.56;101035.47;15433318;28;20632;-65
2021/05/02 21:12:52;;;;;;;1999.90;999.90;;;;;;;9.52;69.98;101032.28;15421742;28;20043;-65
2021/05/02 21:20:24;;;;;;;1999.90;999.90;;;;;;;9.58;69.48;101030.19;15452276;28;20090;-65
2021/05/02 21:27:59;;;;;;;1999.90;999.90;;;;;;;9.62;69.12;101047.09;15426575;28;20053;-65
2021/05/02 21:35:33;;;;;;;1999.90;999.90;;;;;;;9.80;68.14;101046.06;15426622;28;20551;-66
2021/05/02 21:43:05;;;;;;;1999.90;999.90;;;;;;;9.75;68.05;101058.16;15442839;28;20042;-65
2021/05/02 21:50:37;;;;;;;1999.90;999.90;;;;;;;9.69;67.49;101066.97;15425086;28;20042;-65
2021/05/02 21:58:09;;;;;;;1999.90;999.90;;;;;;;9.64;66.92;101067.94;15441171;28;20054;-64
2021/05/02 22:05:42;;;;;;;1999.90;999.90;;;;;;;9.71;67.42;101076.66;15441607;28;20054;-65
2021/05/02 22:13:14;;;;;;;1999.90;999.90;;;;;;;9.49;69.16;101082.25;15423809;28;20481;-65
2021/05/02 22:20:46;;;;;;;1999.90;999.90;;;;;;;9.65;69.83;101093.81;15423078;28;20041;-65
2021/05/02 22:28:18;;;;;;;1999.90;999.90;;;;;;;9.60;70.05;101097.56;15410979;28;20050;-63
2021/05/02 22:35:51;;;;;;;1999.90;999.90;;;;;;;9.55;69.42;101108.84;15438699;28;20078;-64
2021/05/02 22:43:24;;;;;;;1999.90;999.90;;;;;;;9.36;70.33;101113.75;15438338;28;20109;-63
2021/05/02 22:50:57;;;;;;;1999.90;999.90;;;;;;;9.48;69.96;101111.22;15437643;28;20050;-64
2021/05/02 22:58:29;;;;;;;1999.90;999.90;;;;;;;9.29;71.25;101111.44;15421858;28;20046;-63
2021/05/02 23:06:01;;;;;;;1999.90;999.90;;;;;;;9.12;71.71;101126.00;15438293;28;20059;-64
2021/05/02 23:13:32;;;;;;;1999.90;999.90;;;;;;;9.17;70.63;101112.00;15438403;28;20078;-64
2021/05/02 23:21:05;;;;;;;1999.90;999.90;;;;;;;9.21;69.83;101118.56;15435921;28;20051;-64
2021/05/02 23:28:37;;;;;;;1999.90;999.90;;;;;;;8.85;70.70;101115.75;15433519;28;20501;-64
2021/05/02 23:36:09;;;;;;;1999.90;999.90;;;;;;;8.76;71.06;101117.66;15434935;28;20133;-64
2021/05/02 23:43:41;;;;;;;1999.90;999.90;;;;;;;8.61;71.35;101129.91;15435381;28;20435;-64
2021/05/02 23:51:13;;;;;;;1999.90;999.90;;;;;;;8.45;70.69;101124.97;15436256;28;20121;-65
2021/05/02 23:58:45;;;;;;;1999.90;999.90;;;;;;;8.96;69.53;101146.97;15434329;28;20070;-64
